Time;durP1;ratioP1;P1;durP2;ratioP2;P2;SDS_P1;SDS_P2;PMS_P1;PMS_P2;Temp;Humidity;BMP_temperature;BMP_pressure;BME280_temperature;BME280_humidity;BME280_pressure;Samples;Min_cycle;Max_cycle;Signal;HPM_P1;HPM_P2
2021/01/22 00:01:59;;;;;;;15.58;8.08;;;;;;;9.54;62.04;98549.86;2909344;81;21125;-68
2021/01/22 00:06:04;;;;;;;14.58;9.95;;;;;;;9.41;62.08;98551.62;2910968;80;21102;-66
2021/01/22 00:10:09;;;;;;;14.80;8.33;;;;;;;9.37;62.51;98552.94;2910445;81;21539;-69
2021/01/22 00:14:14;;;;;;;15.85;8.08;;;;;;;9.17;63.41;98542.59;2910913;81;21105;-66
2021/01/22 00:18:18;;;;;;;14.95;9.60;;;;;;;9.06;63.22;98544.22;2901791;81;21168;-66
2021/01/22 00:22:21;;;;;;;17.35;11.00;;;;;;;9.09;63.52;98543.38;2976480;80;21097;-65
2021/01/22 00:26:24;;;;;;;21.77;9.73;;;;;;;9.08;63.28;98519.69;2965671;80;21122;-68
2021/01/22 00:30:27;;;;;;;13.30;8.35;;;;;;;9.12;62.52;98520.51;2935340;80;21149;-66
2021/01/22 00:34:31;;;;;;;18.07;8.33;;;;;;;9.21;62.29;98512.09;2938598;81;21153;-66
2021/01/22 00:38:34;;;;;;;12.63;8.58;;;;;;;9.26;62.19;98519.57;2934632;80;21154;-70
2021/01/22 00:42:38;;;;;;;10.63;7.37;;;;;;;9.28;61.95;98514.45;2884952;80;21128;-69
2021/01/22 00:46:41;;;;;;;22.55;13.50;;;;;;;9.30;61.88;98518.25;2888335;81;21136;-67
2021/01/22 00:50:44;;;;;;;32.40;20.92;;;;;;;9.21;62.00;98516.06;2903058;81;21144;-67
2021/01/22 00:54:49;;;;;;;26.23;16.05;;;;;;;9.05;62.56;98506.23;2909075;81;21109;-66
2021/01/22 00:58:52;;;;;;;16.37;10.38;;;;;;;8.96;62.40;98497.41;2908835;81;21164;-68
2021/01/22 01:02:55;;;;;;;15.38;8.73;;;;;;;8.94;63.03;98505.18;2908725;81;21165;-66
2021/01/22 01:06:58;;;;;;;15.05;9.48;;;;;;;8.86;63.48;98482.14;2909434;81;21152;-68
2021/01/22 01:11:01;;;;;;;19.35;11.78;;;;;;;8.80;64.03;98478.78;2932060;81;21150;-67
2021/01/22 01:15:07;;;;;;;15.60;9.70;;;;;;;8.67;64.44;98468.61;2938916;81;21145;-65
2021/01/22 01:19:10;;;;;;;21.15;10.72;;;;;;;8.59;64.84;98463.28;2939131;80;22209;-65
2021/01/22 01:23:16;;;;;;;19.80;9.05;;;;;;;8.47;65.50;98467.48;2939199;80;21174;-66
2021/01/22 01:27:19;;;;;;;12.28;9.70;;;;;;;8.40;66.13;98476.55;2939304;80;21584;-68
2021/01/22 01:31:22;;;;;;;15.10;11.18;;;;;;;8.43;66.37;98480.72;2938669;80;21478;-68
2021/01/22 01:35:26;;;;;;;17.32;11.40;;;;;;;8.44;66.35;98488.49;2938762;80;21137;-69
2021/01/22 01:39:28;;;;;;;16.32;10.08;;;;;;;8.37;66.17;98462.30;2938873;80;21157;-67
2021/01/22 01:43:32;;;;;;;14.10;9.00;;;;;;;8.34;66.10;98451.17;2939071;81;21504;-66
2021/01/22 01:47:35;;;;;;;18.50;11.38;;;;;;;8.23;66.46;98433.73;2938690;80;21148;-67
2021/01/22 01:51:41;;;;;;;15.18;10.03;;;;;;;8.13;66.87;98427.20;2938939;80;21571;-66
2021/01/22 01:55:44;;;;;;;21.42;12.33;;;;;;;8.08;67.21;98430.34;2939259;81;21177;-67
2021/01/22 01:59:49;;;;;;;14.85;9.03;;;;;;;8.02;67.44;98422.19;2939054;81;21507;-68
2021/01/22 02:03:52;;;;;;;29.52;16.60;;;;;;;7.85;68.10;98418.91;2938603;81;21166;-66
2021/01/22 02:07:56;;;;;;;31.48;17.25;;;;;;;7.76;68.54;98412.39;2938952;80;21138;-66
2021/01/22 02:11:59;;;;;;;20.23;12.07;;;;;;;7.75;68.72;98393.05;2938951;81;21141;-69
2021/01/22 02:16:04;;;;;;;21.23;14.15;;;;;;;7.67;68.88;98394.32;2938848;81;21142;-68
2021/01/22 02:20:35;;;;;;;144.47;71.17;;;;;;;7.69;69.04;98384.41;2938966;80;21126;-67
2021/01/22 02:24:40;;;;;;;60.88;36.48;;;;;;;7.70;69.23;98390.04;2938852;81;21145;-67
2021/01/22 02:28:46;;;;;;;59.87;29.40;;;;;;;7.71;69.33;98380.60;2939264;80;21117;-67
2021/01/22 02:32:49;;;;;;;38.53;20.52;;;;;;;7.67;69.63;98377.94;2938791;81;21162;-68
2021/01/22 02:36:58;;;;;;;35.38;20.35;;;;;;;7.70;69.61;98370.19;2938984;80;21134;-68
2021/01/22 02:41:02;;;;;;;20.52;13.60;;;;;;;7.64;69.79;98366.81;2938859;80;21593;-66
2021/01/22 02:45:08;;;;;;;18.55;12.80;;;;;;;7.64;69.94;98374.28;2938934;81;21130;-66
2021/01/22 02:49:11;;;;;;;25.20;14.68;;;;;;;7.72;70.15;98380.13;2938956;80;21090;-68
2021/01/22 02:53:14;;;;;;;25.57;14.38;;;;;;;7.82;69.84;98374.22;2938679;80;21224;-69
2021/01/22 02:57:54;;;;;;;15.58;8.40;;;;;;;7.86;69.54;98367.66;2939307;80;21173;-69
2021/01/22 03:02:18;;;;;;;15.90;10.58;;;;;;;7.92;69.74;98378.60;2935647;80;21584;-64
2021/01/22 03:06:28;;;;;;;13.03;8.68;;;;;;;7.84;69.96;98369.61;2906531;80;21129;-68
2021/01/22 03:10:32;;;;;;;14.73;10.68;;;;;;;7.80;70.23;98375.39;2896542;81;21590;-68
2021/01/22 03:14:36;;;;;;;15.40;9.83;;;;;;;7.79;70.52;98376.38;2864689;82;21606;-69
2021/01/22 03:19:01;;;;;;;16.00;10.13;;;;;;;7.81;70.44;98361.98;2905581;80;21160;-69
2021/01/22 03:23:04;;;;;;;16.70;12.40;;;;;;;7.83;70.47;98356.55;2908923;81;21145;-67
2021/01/22 03:27:07;;;;;;;13.62;9.23;;;;;;;7.80;70.49;98356.34;2911861;80;21148;-68
2021/01/22 03:31:10;;;;;;;12.00;8.45;;;;;;;7.71;70.60;98344.88;2918834;81;21142;-66
2021/01/22 03:35:18;;;;;;;10.05;6.87;;;;;;;7.73;70.84;98336.80;2918501;81;21117;-68
2021/01/22 03:39:22;;;;;;;12.25;7.92;;;;;;;7.80;70.87;98344.44;2841439;83;21163;-67
2021/01/22 03:43:25;;;;;;;31.05;19.60;;;;;;;7.97;70.48;98323.36;2785161;85;21145;-67
2021/01/22 03:47:28;;;;;;;18.62;9.13;;;;;;;8.03;69.87;98322.72;2810905;84;21165;-68
2021/01/22 03:51:31;;;;;;;8.95;7.05;;;;;;;8.00;70.10;98324.36;2761732;84;21156;-66
2021/01/22 03:55:37;;;;;;;8.75;5.75;;;;;;;7.99;70.28;98303.69;2810723;82;21707;-66
2021/01/22 03:59:40;;;;;;;10.20;6.12;;;;;;;8.01;70.62;98320.73;2822251;82;21137;-65
2021/01/22 04:03:44;;;;;;;9.63;5.28;;;;;;;8.10;70.58;98316.30;2837001;82;21153;-69
2021/01/22 04:07:47;;;;;;;10.13;5.95;;;;;;;8.21;70.23;98307.24;2795427;83;21147;-70
2021/01/22 04:11:50;;;;;;;6.37;4.90;;;;;;;8.24;70.21;98304.27;2868724;83;21134;-70
2021/01/22 04:15:54;;;;;;;9.90;5.08;;;;;;;8.31;70.38;98297.84;2868528;82;21178;-67
2021/01/22 04:19:57;;;;;;;8.05;5.30;;;;;;;8.42;70.38;98286.45;2883665;80;21148;-66
2021/01/22 04:24:02;;;;;;;11.85;4.62;;;;;;;8.48;70.65;98266.95;2898040;82;31034;-67
2021/01/22 04:28:05;;;;;;;4.10;2.92;;;;;;;8.61;70.83;98261.20;2904449;81;21164;-67
2021/01/22 04:32:08;;;;;;;6.15;3.20;;;;;;;8.74;70.61;98273.47;2911666;81;21147;-68
2021/01/22 04:36:12;;;;;;;6.10;4.30;;;;;;;8.90;70.24;98266.05;2911659;81;21597;-68
2021/01/22 04:40:17;;;;;;;6.50;3.33;;;;;;;9.01;69.79;98259.59;2912197;80;21151;-68
2021/01/22 04:44:19;;;;;;;5.53;4.28;;;;;;;9.13;69.35;98250.80;2911633;81;21144;-67
2021/01/22 04:48:23;;;;;;;5.83;4.42;;;;;;;9.25;68.88;98244.16;2912078;80;21161;-67
2021/01/22 04:52:27;;;;;;;5.17;3.55;;;;;;;9.38;68.37;98241.48;2911760;81;21140;-69
2021/01/22 04:56:35;;;;;;;6.10;3.92;;;;;;;9.41;67.98;98215.44;2886241;80;21140;-68
2021/01/22 05:00:40;;;;;;;12.15;3.85;;;;;;;9.49;67.80;98238.48;2911415;81;21160;-70
2021/01/22 05:04:43;;;;;;;5.28;4.72;;;;;;;9.57;67.61;98217.73;2911548;81;21120;-69
2021/01/22 05:08:47;;;;;;;4.60;2.98;;;;;;;9.56;67.60;98220.88;2911464;80;21175;-66
2021/01/22 05:12:52;;;;;;;7.67;3.92;;;;;;;9.53;67.47;98217.72;2912003;80;21159;-65
2021/01/22 05:17:11;;;;;;;4.60;3.75;;;;;;;9.56;67.56;98211.58;2911541;81;21159;-70
2021/01/22 05:21:18;;;;;;;4.35;3.33;;;;;;;9.54;67.81;98212.77;2911610;80;21164;-67
2021/01/22 05:25:21;;;;;;;6.30;4.50;;;;;;;9.52;67.83;98210.27;2912100;80;21171;-68
2021/01/22 05:29:24;;;;;;;5.92;3.85;;;;;;;9.50;67.97;98210.95;2904902;81;21690;-67
2021/01/22 05:33:28;;;;;;;5.08;4.03;;;;;;;9.55;68.06;98217.89;2902586;80;21622;-67
2021/01/22 05:37:31;;;;;;;6.70;4.62;;;;;;;9.55;68.27;98213.91;2902564;81;21132;-66
2021/01/22 05:41:34;;;;;;;11.63;5.20;;;;;;;9.51;68.64;98213.92;2902557;81;21558;-66
2021/01/22 05:45:45;;;;;;;7.53;4.60;;;;;;;9.47;68.83;98213.94;2902709;81;21132;-68
2021/01/22 05:50:00;;;;;;;10.68;7.00;;;;;;;9.42;69.10;98208.30;2907987;80;21118;-68
2021/01/22 05:54:05;;;;;;;10.53;4.65;;;;;;;9.45;69.00;98201.83;2914118;81;21179;-68
2021/01/22 05:58:08;;;;;;;8.10;5.10;;;;;;;9.36;69.43;98212.96;2913663;81;21160;-67
2021/01/22 06:02:28;;;;;;;7.53;4.37;;;;;;;9.40;69.26;98218.25;2913856;81;21768;-66
2021/01/22 06:06:32;;;;;;;7.92;4.42;;;;;;;9.41;69.23;98226.05;2914243;81;21137;-69
2021/01/22 06:10:39;;;;;;;7.85;4.65;;;;;;;9.44;69.09;98224.91;2914248;81;21183;-67
2021/01/22 06:14:42;;;;;;;8.15;4.62;;;;;;;9.42;69.12;98224.21;2912222;80;21570;-69
2021/01/22 06:19:03;;;;;;;6.72;4.45;;;;;;;9.41;69.03;98218.58;2909546;80;21135;-70
2021/01/22 06:23:14;;;;;;;9.33;5.15;;;;;;;9.47;68.97;98223.23;2902714;82;21578;-68
2021/01/22 06:27:19;;;;;;;5.20;4.55;;;;;;;9.45;69.10;98201.83;2903054;80;21152;-64
2021/01/22 06:31:23;;;;;;;5.78;3.90;;;;;;;9.47;68.94;98203.33;2951830;80;21117;-66
2021/01/22 06:35:31;;;;;;;6.53;5.20;;;;;;;9.47;68.88;98193.20;2953916;80;21599;-69
2021/01/22 06:39:35;;;;;;;6.10;3.83;;;;;;;9.45;68.96;98188.08;2927902;80;21136;-66
2021/01/22 06:43:39;;;;;;;8.58;4.60;;;;;;;9.43;68.82;98191.38;2913887;81;21156;-67
2021/01/22 06:47:42;;;;;;;5.85;5.20;;;;;;;9.42;68.91;98192.38;2914160;81;21136;-67
2021/01/22 06:51:45;;;;;;;6.50;5.22;;;;;;;9.33;68.71;98201.36;2934967;80;21118;-68
2021/01/22 06:56:02;;;;;;;6.72;3.98;;;;;;;9.45;68.65;98203.16;2963738;80;21137;-67
2021/01/22 07:00:34;;;;;;;5.12;3.98;;;;;;;9.40;68.54;98194.37;2963680;80;21109;-69
2021/01/22 07:04:40;;;;;;;7.35;4.42;;;;;;;9.40;68.47;98207.64;2963152;80;21156;-66
2021/01/22 07:08:57;;;;;;;6.43;4.80;;;;;;;9.35;68.65;98200.20;2900005;81;21560;-68
2021/01/22 07:12:59;;;;;;;;;;;;;;;9.23;69.00;98199.70;2845901;83;21165;-67
2021/01/22 07:17:15;;;;;;;9.45;6.95;;;;;;;9.19;69.28;98197.06;2892903;82;20122;-66
2021/01/22 07:21:38;;;;;;;9.58;6.60;;;;;;;9.13;69.49;98192.45;2892765;82;21169;-66
2021/01/22 07:25:42;;;;;;;11.68;5.87;;;;;;;9.05;69.79;98195.93;2892682;82;21603;-67
2021/01/22 07:30:12;;;;;;;11.20;5.28;;;;;;;9.06;69.89;98223.30;2929190;80;21090;-68
2021/01/22 07:34:44;;;;;;;8.58;6.10;;;;;;;9.08;69.80;98222.63;2939382;81;21580;-66
2021/01/22 07:38:51;;;;;;;10.03;5.33;;;;;;;9.06;69.77;98218.80;2946430;80;21125;-68
2021/01/22 07:42:54;;;;;;;8.53;6.28;;;;;;;9.02;70.02;98215.31;2939017;80;21122;-66
2021/01/22 07:46:57;;;;;;;5.22;4.72;;;;;;;9.06;70.14;98206.05;2931900;81;21146;-66
2021/01/22 07:51:20;;;;;;;7.42;6.47;;;;;;;9.06;70.09;98210.03;2932502;80;21111;-69
2021/01/22 07:55:24;;;;;;;9.48;5.97;;;;;;;9.06;70.10;98216.66;2931920;81;21615;-65
2021/01/22 07:59:29;;;;;;;7.50;5.67;;;;;;;9.05;69.96;98207.05;2932587;80;21145;-67
2021/01/22 08:03:51;;;;;;;9.93;5.95;;;;;;;9.04;69.94;98206.69;2932259;80;21149;-66
2021/01/22 08:07:53;;;;;;;5.92;4.80;;;;;;;9.01;69.87;98201.25;2931787;80;21134;-65
2021/01/22 08:12:11;;;;;;;8.28;5.30;;;;;;;9.00;69.82;98195.61;2932038;81;21165;-65
2021/01/22 08:16:23;;;;;;;7.60;5.60;;;;;;;9.01;69.78;98211.85;2930352;81;21134;-66
2021/01/22 08:20:26;;;;;;;6.10;5.50;;;;;;;9.03;69.71;98212.51;2932064;81;21137;-67
2021/01/22 08:24:30;;;;;;;7.12;4.95;;;;;;;8.99;69.65;98213.33;2932140;80;21158;-66
2021/01/22 08:28:34;;;;;;;7.55;6.30;;;;;;;8.96;69.67;98213.67;2935412;80;21615;-66
2021/01/22 08:32:39;;;;;;;7.60;5.60;;;;;;;8.97;69.61;98218.48;2943501;80;21149;-67
2021/01/22 08:36:42;;;;;;;7.87;6.95;;;;;;;8.96;69.62;98221.62;2943413;80;21138;-66
2021/01/22 08:40:45;;;;;;;8.73;6.33;;;;;;;8.96;69.49;98214.19;2943353;80;21149;-66
2021/01/22 08:45:06;;;;;;;9.23;5.40;;;;;;;8.96;69.42;98210.20;2943437;80;21129;-64
2021/01/22 08:49:14;;;;;;;6.40;5.58;;;;;;;9.14;69.42;98207.36;2943187;80;21599;-66
2021/01/22 08:53:17;;;;;;;5.55;5.03;;;;;;;9.39;68.74;98212.61;2943426;80;21145;-66
2021/01/22 08:57:22;;;;;;;12.68;6.17;;;;;;;9.64;68.27;98213.38;2943627;80;21130;-66
2021/01/22 09:01:55;;;;;;;7.08;5.75;;;;;;;9.79;67.24;98211.35;2943916;80;21142;-70
2021/01/22 09:06:00;;;;;;;7.53;5.85;;;;;;;9.76;66.94;98211.19;2943652;80;21146;-67
2021/01/22 09:10:05;;;;;;;9.95;6.60;;;;;;;9.73;66.72;98223.48;2943646;80;21141;-66
2021/01/22 09:14:10;;;;;;;9.50;6.30;;;;;;;9.76;66.68;98225.79;2943695;80;21117;-65
2021/01/22 09:18:19;;;;;;;12.25;6.35;;;;;;;9.79;66.51;98230.75;2943586;80;21552;-67
2021/01/22 09:22:23;;;;;;;7.30;6.05;;;;;;;9.91;66.62;98233.86;2943684;80;21181;-68
2021/01/22 09:26:26;;;;;;;8.80;5.90;;;;;;;10.09;65.74;98227.48;2943407;80;21157;-67
2021/01/22 09:30:29;;;;;;;8.40;4.83;;;;;;;10.22;65.46;98213.62;2943408;80;21646;-65
2021/01/22 09:34:33;;;;;;;9.08;7.20;;;;;;;10.30;64.82;98216.25;2944203;80;21623;-68
2021/01/22 09:38:36;;;;;;;10.35;7.25;;;;;;;10.48;64.81;98215.19;2943702;80;21150;-67
2021/01/22 09:42:39;;;;;;;13.40;10.48;;;;;;;10.61;64.17;98205.30;2943630;80;21137;-68
2021/01/22 09:46:44;;;;;;;17.27;10.70;;;;;;;10.80;64.34;98206.14;2943813;80;21098;-66
2021/01/22 09:50:47;;;;;;;11.60;8.70;;;;;;;11.11;63.90;98195.91;2943903;80;21145;-66
2021/01/22 09:54:54;;;;;;;11.00;7.12;;;;;;;11.37;63.41;98191.16;2943895;80;21134;-66
2021/01/22 09:58:57;;;;;;;8.83;5.45;;;;;;;11.64;62.45;98200.87;2944079;80;21161;-67
2021/01/22 10:03:00;;;;;;;11.05;5.58;;;;;;;11.87;61.50;98195.41;2944045;80;21157;-68
2021/01/22 10:07:05;;;;;;;60.43;32.67;;;;;;;12.05;61.29;98205.72;2944180;80;21086;-65
2021/01/22 10:11:08;;;;;;;35.28;22.48;;;;;;;12.24;61.18;98202.95;2944097;80;21177;-68
2021/01/22 10:15:16;;;;;;;19.67;9.73;;;;;;;12.38;61.32;98193.28;2944239;80;21145;-66
2021/01/22 10:19:19;;;;;;;38.85;22.25;;;;;;;12.49;61.40;98180.45;2943938;80;21173;-67
2021/01/22 10:23:22;;;;;;;47.27;28.52;;;;;;;12.57;61.16;98182.48;2944535;80;21137;-67
2021/01/22 10:27:26;;;;;;;15.32;11.35;;;;;;;12.64;61.57;98173.22;2944687;80;21157;-68
2021/01/22 10:31:29;;;;;;;16.35;10.48;;;;;;;12.53;61.26;98180.39;2949235;80;21153;-67
2021/01/22 10:35:32;;;;;;;14.35;11.25;;;;;;;12.49;61.73;98183.12;2950136;80;21146;-65
2021/01/22 10:39:36;;;;;;;11.45;9.68;;;;;;;12.48;61.97;98180.98;2950436;80;21138;-65
2021/01/22 10:43:39;;;;;;;19.70;13.68;;;;;;;12.64;61.42;98171.05;2949841;80;21114;-66
2021/01/22 10:47:43;;;;;;;14.95;7.67;;;;;;;12.81;61.82;98160.43;2950106;80;21137;-65
2021/01/22 10:51:46;;;;;;;8.93;7.22;;;;;;;12.98;61.65;98154.33;2949776;80;21129;-66
2021/01/22 10:55:50;;;;;;;6.50;5.20;;;;;;;13.07;60.35;98141.66;2950046;80;21544;-64
2021/01/22 10:59:53;;;;;;;11.22;8.58;;;;;;;13.20;60.94;98142.75;2950163;80;21599;-67
2021/01/22 11:03:56;;;;;;;17.30;9.85;;;;;;;13.46;61.15;98148.80;2950526;80;21161;-67
2021/01/22 11:08:00;;;;;;;10.85;7.08;;;;;;;13.72;61.50;98148.61;2950464;80;21150;-66
2021/01/22 11:12:05;;;;;;;13.13;8.33;;;;;;;13.99;60.17;98138.84;2950568;80;21563;-66
2021/01/22 11:16:08;;;;;;;9.28;6.05;;;;;;;14.12;59.46;98147.94;2950586;80;22033;-65
2021/01/22 11:20:13;;;;;;;14.43;8.43;;;;;;;14.16;58.58;98137.67;2950585;80;21141;-66
2021/01/22 11:24:15;;;;;;;11.00;8.55;;;;;;;14.17;59.04;98136.12;2950777;80;21113;-66
2021/01/22 11:28:18;;;;;;;12.28;9.38;;;;;;;14.25;59.40;98122.58;2950857;80;21106;-67
2021/01/22 11:32:21;;;;;;;9.68;6.22;;;;;;;14.30;59.43;98107.77;2950603;80;21154;-68
2021/01/22 11:36:24;;;;;;;4.58;4.12;;;;;;;14.28;59.64;98111.97;2951208;80;21105;-67
2021/01/22 11:40:28;;;;;;;7.75;5.50;;;;;;;14.28;60.08;98103.95;2950986;80;21109;-67
2021/01/22 11:44:32;;;;;;;17.12;5.70;;;;;;;14.36;58.67;98100.27;2950979;80;21173;-67
2021/01/22 11:48:35;;;;;;;10.25;4.20;;;;;;;14.47;58.15;98094.81;2951238;80;21164;-67
2021/01/22 11:52:38;;;;;;;5.85;4.35;;;;;;;14.61;57.62;98105.84;2951163;80;21540;-67
2021/01/22 11:56:42;;;;;;;8.05;5.58;;;;;;;14.68;57.51;98120.03;2951436;80;21125;-66
2021/01/22 12:00:45;;;;;;;8.85;4.92;;;;;;;14.71;57.62;98107.60;2951481;80;21137;-66
2021/01/22 12:04:49;;;;;;;7.95;5.42;;;;;;;14.72;57.53;98105.77;2951514;80;21126;-66
2021/01/22 12:08:52;;;;;;;12.65;5.62;;;;;;;14.67;57.32;98111.70;2951292;80;21101;-67
2021/01/22 12:12:55;;;;;;;5.12;3.95;;;;;;;14.63;57.22;98110.47;2951466;80;21117;-68
2021/01/22 12:16:59;;;;;;;4.05;2.90;;;;;;;14.69;58.15;98114.18;2951864;80;21094;-66
2021/01/22 12:21:06;;;;;;;6.97;3.98;;;;;;;14.80;59.14;98107.41;2951728;80;21078;-67
2021/01/22 12:25:12;;;;;;;4.45;4.05;;;;;;;14.88;59.03;98116.55;2951840;80;21121;-67
2021/01/22 12:29:15;;;;;;;3.98;3.47;;;;;;;14.94;57.85;98122.44;2951744;80;21480;-67
2021/01/22 12:33:19;;;;;;;6.05;3.90;;;;;;;14.98;57.03;98119.65;2951452;80;21125;-66
2021/01/22 12:37:23;;;;;;;5.83;4.55;;;;;;;15.01;56.39;98117.05;2951510;80;21122;-68
2021/01/22 12:41:26;;;;;;;12.10;8.93;;;;;;;15.00;57.24;98114.07;2951022;80;21180;-67
2021/01/22 12:45:33;;;;;;;11.25;5.58;;;;;;;14.93;56.91;98102.56;2951360;80;21153;-67
2021/01/22 12:49:38;;;;;;;8.48;4.70;;;;;;;14.94;56.92;98101.02;2952000;80;21158;-67
2021/01/22 12:53:41;;;;;;;7.95;4.28;;;;;;;14.98;57.29;98087.52;2951489;80;21098;-68
2021/01/22 12:57:45;;;;;;;5.37;4.28;;;;;;;15.01;57.96;98098.31;2951541;80;21133;-68
2021/01/22 13:01:48;;;;;;;9.63;5.50;;;;;;;15.01;57.96;98096.97;2951572;80;21656;-67
2021/01/22 13:05:52;;;;;;;4.62;4.20;;;;;;;14.91;57.49;98089.37;2951717;80;21168;-68
2021/01/22 13:09:55;;;;;;;10.60;5.75;;;;;;;14.79;57.26;98097.73;2951555;80;21663;-66
2021/01/22 13:13:58;;;;;;;9.20;5.47;;;;;;;14.62;57.59;98098.13;2950903;80;21529;-66
2021/01/22 13:18:01;;;;;;;11.22;5.62;;;;;;;14.42;57.30;98105.63;2951354;80;21077;-66
2021/01/22 13:22:06;;;;;;;18.07;9.30;;;;;;;14.20;56.95;98109.50;2949545;80;21200;-66
2021/01/22 13:26:13;;;;;;;20.32;13.75;;;;;;;13.90;57.22;98093.79;2951121;80;21161;-67
2021/01/22 13:30:17;;;;;;;19.90;11.63;;;;;;;13.66;58.03;98090.64;2951262;80;21651;-67
2021/01/22 13:34:20;;;;;;;37.53;23.47;;;;;;;13.44;58.61;98082.74;2950754;80;21162;-68
2021/01/22 13:38:23;;;;;;;29.80;18.70;;;;;;;13.20;58.86;98075.52;2950341;80;21149;-68
2021/01/22 13:42:29;;;;;;;21.70;10.88;;;;;;;13.07;58.96;98078.94;2948958;80;21153;-68
2021/01/22 13:46:32;;;;;;;21.60;11.97;;;;;;;13.04;59.18;98077.16;2949274;80;21159;-67
2021/01/22 13:50:41;;;;;;;17.35;11.08;;;;;;;13.07;59.16;98080.27;2949418;80;21145;-68
2021/01/22 13:54:44;;;;;;;11.28;6.75;;;;;;;13.10;59.04;98084.38;2914017;81;21129;-66
2021/01/22 13:58:49;;;;;;;8.25;4.35;;;;;;;13.10;59.13;98087.05;2914706;81;21132;-67
2021/01/22 14:02:53;;;;;;;8.25;6.37;;;;;;;13.06;59.40;98080.45;2914754;81;21159;-67
2021/01/22 14:06:57;;;;;;;6.90;6.08;;;;;;;13.03;59.47;98087.52;2914839;81;21176;-68
2021/01/22 14:11:04;;;;;;;9.58;6.85;;;;;;;12.96;59.84;98085.62;2914326;81;21141;-67
2021/01/22 14:15:09;;;;;;;9.90;6.75;;;;;;;12.90;60.28;98100.27;2914359;81;21111;-67
2021/01/22 14:19:12;;;;;;;11.45;7.65;;;;;;;12.83;60.60;98102.89;2914311;80;21587;-67
2021/01/22 14:23:15;;;;;;;10.75;8.10;;;;;;;12.75;60.53;98100.34;2914447;81;21148;-68
2021/01/22 14:27:19;;;;;;;11.10;7.62;;;;;;;12.67;60.21;98114.16;2913969;81;21148;-67
2021/01/22 14:31:22;;;;;;;9.50;7.95;;;;;;;12.60;60.42;98109.28;2917261;81;21160;-67
2021/01/22 14:35:25;;;;;;;13.10;8.65;;;;;;;12.46;60.77;98109.66;2919731;81;21128;-67
2021/01/22 14:39:28;;;;;;;10.95;8.08;;;;;;;12.37;60.70;98127.63;2909116;80;21687;-68
2021/01/22 14:43:38;;;;;;;10.32;7.92;;;;;;;12.32;60.81;98124.70;2869591;81;21122;-67
2021/01/22 14:47:54;;;;;;;12.55;9.65;;;;;;;12.28;60.85;98141.61;2858426;82;21171;-68
2021/01/22 14:51:57;;;;;;;12.15;9.93;;;;;;;12.23;60.73;98142.66;2860634;82;21175;-67
2021/01/22 14:56:00;;;;;;;14.38;8.68;;;;;;;12.14;60.85;98139.81;2860421;83;21662;-67
2021/01/22 15:00:05;;;;;;;10.68;7.90;;;;;;;12.07;60.84;98141.08;2860256;82;21124;-67
2021/01/22 15:04:09;;;;;;;13.25;9.70;;;;;;;11.97;60.87;98132.51;2845891;82;21078;-65
2021/01/22 15:08:12;;;;;;;18.48;12.20;;;;;;;11.86;60.93;98128.49;2806843;84;21160;-66
2021/01/22 15:12:15;;;;;;;21.15;12.88;;;;;;;11.77;61.01;98121.64;2830544;84;21159;-66
2021/01/22 15:16:18;;;;;;;12.13;8.25;;;;;;;11.74;61.10;98129.48;2806297;84;21424;-66
2021/01/22 15:20:23;;;;;;;8.90;7.67;;;;;;;11.67;61.20;98136.06;2860846;82;21769;-66
2021/01/22 15:24:26;;;;;;;11.75;7.65;;;;;;;11.60;61.40;98146.33;2856656;83;21134;-66
2021/01/22 15:28:29;;;;;;;14.80;11.97;;;;;;;11.53;61.59;98148.91;2881650;82;21599;-65
2021/01/22 15:32:32;;;;;;;24.50;14.00;;;;;;;11.48;61.78;98148.61;2862825;82;21145;-66
2021/01/22 15:36:36;;;;;;;29.37;19.65;;;;;;;11.42;62.14;98162.17;2847246;82;21123;-66
2021/01/22 15:40:39;;;;;;;41.00;26.30;;;;;;;11.34;62.58;98165.75;2808296;84;21152;-67
2021/01/22 15:44:42;;;;;;;87.95;59.42;;;;;;;11.27;62.88;98160.33;2834188;83;21534;-66
2021/01/22 15:48:46;;;;;;;42.98;27.75;;;;;;;11.18;63.43;98168.05;2854091;82;21139;-67
2021/01/22 15:52:49;;;;;;;32.20;19.62;;;;;;;11.05;64.02;98166.54;2882699;81;21117;-69
2021/01/22 15:56:55;;;;;;;21.07;14.85;;;;;;;10.95;64.58;98174.26;2897342;82;21488;-69
2021/01/22 16:00:58;;;;;;;;;;;;;;;10.88;64.96;98176.48;2901099;81;21166;-66
2021/01/22 16:05:02;;;;;;;40.30;22.40;;;;;;;10.79;65.21;98174.39;2871664;82;20467;-66
2021/01/22 16:09:05;;;;;;;28.95;17.77;;;;;;;10.69;65.33;98178.14;2849262;83;21691;-67
2021/01/22 16:13:08;;;;;;;17.82;12.73;;;;;;;10.61;65.46;98178.22;2849287;83;21165;-65
2021/01/22 16:17:12;;;;;;;13.78;9.88;;;;;;;10.62;65.35;98179.87;2897814;82;21184;-66
2021/01/22 16:21:15;;;;;;;13.53;9.68;;;;;;;10.82;65.08;98187.36;2898233;82;21168;-67
2021/01/22 16:25:21;;;;;;;9.08;6.87;;;;;;;11.06;64.54;98193.47;2898819;82;21130;-68
2021/01/22 16:29:24;;;;;;;10.45;7.33;;;;;;;11.29;64.30;98200.89;2899467;81;21149;-71
2021/01/22 16:33:27;;;;;;;13.18;9.23;;;;;;;11.46;63.81;98183.91;2899010;81;21145;-68
2021/01/22 16:37:31;;;;;;;28.23;18.95;;;;;;;11.57;63.21;98174.95;2898497;81;21584;-67
2021/01/22 16:41:34;;;;;;;28.07;17.50;;;;;;;11.68;62.90;98186.97;2872099;82;21132;-66
2021/01/22 16:45:37;;;;;;;43.95;27.17;;;;;;;11.71;62.65;98181.30;2875443;82;21174;-68
2021/01/22 16:49:41;;;;;;;37.35;26.12;;;;;;;11.74;62.62;98174.77;2866221;82;21141;-68
2021/01/22 16:53:45;;;;;;;35.05;20.82;;;;;;;11.75;62.29;98173.75;2822507;83;21189;-68
2021/01/22 16:57:48;;;;;;;42.45;21.55;;;;;;;11.68;62.09;98174.18;2781309;84;21687;-67
2021/01/22 17:01:54;;;;;;;39.27;19.48;;;;;;;11.54;62.40;98170.00;2822862;83;21134;-67
2021/01/22 17:05:59;;;;;;;23.18;13.80;;;;;;;11.47;62.62;98166.92;2828205;83;21168;-67
2021/01/22 17:10:05;;;;;;;21.70;13.90;;;;;;;11.36;62.81;98172.20;2834915;83;21152;-68
2021/01/22 17:14:08;;;;;;;20.45;12.10;;;;;;;11.28;63.15;98178.43;2866328;82;21140;-67
2021/01/22 17:18:11;;;;;;;16.40;11.28;;;;;;;11.22;63.52;98175.17;2840032;83;21611;-67
2021/01/22 17:22:14;;;;;;;11.95;8.60;;;;;;;11.18;63.75;98185.34;2834425;83;21608;-67
2021/01/22 17:26:17;;;;;;;11.35;8.20;;;;;;;11.13;64.06;98192.56;2808429;83;21169;-67
2021/01/22 17:30:22;;;;;;;14.63;9.75;;;;;;;11.19;64.15;98196.31;2858848;83;21183;-67
2021/01/22 17:34:25;;;;;;;13.13;9.90;;;;;;;11.20;64.34;98199.81;2805920;84;21626;-68
2021/01/22 17:38:28;;;;;;;17.98;10.45;;;;;;;11.13;64.64;98198.38;2801836;85;21167;-68
2021/01/22 17:42:31;;;;;;;16.97;10.05;;;;;;;11.08;64.95;98205.56;2802014;84;21185;-68
2021/01/22 17:46:34;;;;;;;14.95;11.30;;;;;;;11.11;65.05;98208.38;2807400;84;21125;-67
2021/01/22 17:50:38;;;;;;;18.98;10.08;;;;;;;11.10;65.17;98212.89;2814296;83;21164;-67
2021/01/22 17:54:41;;;;;;;12.30;9.15;;;;;;;11.10;65.40;98224.86;2814296;84;21630;-67
2021/01/22 17:58:44;;;;;;;12.15;8.23;;;;;;;11.10;65.29;98219.54;2814610;84;21164;-67
2021/01/22 18:02:53;;;;;;;17.07;10.93;;;;;;;11.11;65.23;98230.50;2821232;82;21173;-67
2021/01/22 18:06:57;;;;;;;19.40;13.68;;;;;;;11.13;65.24;98223.66;2871124;82;21194;-67
2021/01/22 18:11:00;;;;;;;16.42;13.08;;;;;;;11.18;65.05;98229.26;2871204;82;21138;-67
2021/01/22 18:15:11;;;;;;;17.60;11.97;;;;;;;11.21;65.13;98230.25;2871336;82;21158;-68
2021/01/22 18:19:14;;;;;;;21.05;10.38;;;;;;;11.19;65.14;98239.41;2871439;82;21161;-67
2021/01/22 18:23:18;;;;;;;13.25;9.20;;;;;;;11.14;65.16;98245.27;2871317;82;21641;-67
2021/01/22 18:27:21;;;;;;;14.98;9.95;;;;;;;11.11;65.13;98242.48;2871166;82;21635;-67
2021/01/22 18:31:24;;;;;;;13.58;10.55;;;;;;;11.11;65.17;98249.63;2871453;82;21138;-68
2021/01/22 18:35:28;;;;;;;21.12;12.15;;;;;;;11.10;64.95;98242.64;2871437;82;21138;-67
2021/01/22 18:39:31;;;;;;;19.12;13.20;;;;;;;11.12;64.64;98255.27;2871360;82;21090;-67
2021/01/22 18:43:34;;;;;;;14.47;8.65;;;;;;;11.11;64.74;98254.45;2871246;82;21173;-67
2021/01/22 18:47:38;;;;;;;16.12;10.98;;;;;;;11.10;64.78;98270.09;2863013;82;21154;-68
2021/01/22 18:51:43;;;;;;;14.05;11.35;;;;;;;11.05;64.89;98264.98;2858794;83;21174;-69
2021/01/22 18:55:48;;;;;;;14.70;9.15;;;;;;;11.04;64.98;98272.64;2858492;83;21158;-68
2021/01/22 18:59:55;;;;;;;15.03;9.83;;;;;;;10.99;65.23;98268.66;2858723;83;21174;-69
2021/01/22 19:03:59;;;;;;;13.93;9.75;;;;;;;10.96;65.35;98269.02;2858420;83;21098;-69
2021/01/22 19:08:03;;;;;;;10.18;8.55;;;;;;;10.91;65.53;98261.27;2858577;83;21138;-69